createdAt,value
2018-03-11T00:00:50.217Z,118.27
2018-03-11T00:03:17.861Z,105.70
2018-03-11T00:05:45.479Z,114.50
2018-03-11T00:08:13.212Z,109.57
2018-03-11T00:10:40.833Z,111.50
2018-03-11T00:13:08.457Z,118.50
2018-03-11T00:15:36.206Z,100.97
2018-03-11T00:18:03.865Z,98.90
2018-03-11T00:20:31.504Z,98.97
2018-03-11T00:22:59.183Z,118.07
2018-03-11T00:25:26.847Z,105.33
2018-03-11T00:27:55.129Z,108.60
2018-03-11T00:30:22.773Z,100.83
2018-03-11T00:32:50.449Z,105.43
2018-03-11T00:35:18.116Z,98.97
2018-03-11T00:37:45.786Z,101.77
2018-03-11T00:40:13.424Z,106.17
2018-03-11T00:42:41.032Z,89.37
2018-03-11T00:45:08.664Z,119.27
2018-03-11T00:47:36.324Z,112.33
2018-03-11T00:50:03.949Z,107.20
2018-03-11T00:52:31.593Z,103.50
2018-03-11T00:54:59.315Z,114.93
2018-03-11T00:57:26.980Z,102.97
2018-03-11T00:59:54.597Z,102.37
2018-03-11T01:02:22.242Z,115.33
2018-03-11T01:04:49.968Z,136.00
2018-03-11T01:07:17.604Z,99.57
2018-03-11T01:09:45.292Z,90.47
2018-03-11T01:12:12.935Z,104.83
2018-03-11T01:14:40.621Z,119.43
2018-03-11T01:17:08.237Z,104.00
2018-03-11T01:19:35.952Z,103.27
2018-03-11T01:22:03.614Z,104.50
2018-03-11T01:24:31.274Z,118.97
2018-03-11T01:26:58.890Z,123.10
2018-03-11T01:29:26.528Z,111.77
2018-03-11T01:31:54.157Z,94.00
2018-03-11T01:34:21.821Z,94.27
2018-03-11T01:36:49.436Z,103.47
2018-03-11T01:39:17.148Z,97.00
2018-03-11T01:41:44.809Z,94.03
2018-03-11T01:44:12.449Z,94.10
2018-03-11T01:46:40.128Z,90.27
2018-03-11T01:49:07.763Z,110.53
2018-03-11T01:51:35.376Z,99.83
2018-03-11T01:54:03.129Z,102.43
2018-03-11T01:56:30.736Z,99.77
2018-03-11T01:58:58.444Z,111.73
2018-03-11T02:01:26.052Z,97.20
2018-03-11T02:03:53.772Z,84.47
2018-03-11T02:06:21.389Z,91.90
2018-03-11T02:08:49.008Z,100.63
2018-03-11T02:11:16.640Z,90.00
2018-03-11T02:13:44.247Z,90.83
2018-03-11T02:16:11.876Z,88.03
2018-03-11T02:18:39.548Z,88.27
2018-03-11T02:21:09.868Z,80.83
2018-03-11T02:23:37.477Z,90.20
2018-03-11T02:26:05.112Z,83.17
2018-03-11T02:28:32.751Z,90.57
2018-03-11T02:31:00.384Z,96.30
2018-03-11T02:33:28.004Z,92.40
2018-03-11T02:35:55.642Z,96.77
2018-03-11T02:38:23.254Z,81.07
2018-03-11T02:40:50.894Z,86.13
2018-03-11T02:43:18.529Z,110.60
2018-03-11T02:45:46.165Z,97.67
2018-03-11T02:48:13.809Z,143.70
2018-03-11T02:50:41.521Z,89.10
2018-03-11T02:53:09.147Z,92.70
2018-03-11T02:55:36.843Z,115.20
2018-03-11T02:58:04.509Z,102.97
2018-03-11T03:00:32.129Z,111.53
2018-03-11T03:02:59.764Z,90.07
2018-03-11T03:05:27.381Z,107.73
2018-03-11T03:07:55.068Z,115.93
2018-03-11T03:10:22.685Z,115.67
2018-03-11T03:12:50.325Z,125.30
2018-03-11T03:15:17.940Z,120.00
2018-03-11T03:17:45.606Z,94.47
2018-03-11T03:20:13.273Z,134.67
2018-03-11T03:22:40.924Z,161.40
2018-03-11T03:25:08.545Z,120.30
2018-03-11T03:27:36.152Z,89.23
2018-03-11T03:30:03.786Z,98.70
2018-03-11T03:32:31.408Z,109.77
2018-03-11T03:34:59.045Z,93.87
2018-03-11T03:37:26.700Z,96.13
2018-03-11T03:39:54.364Z,112.23
2018-03-11T03:42:21.985Z,152.87
2018-03-11T03:44:49.694Z,116.37
2018-03-11T03:47:17.348Z,114.93
2018-03-11T03:49:45.013Z,97.30
2018-03-11T03:52:12.634Z,96.57
2018-03-11T03:54:40.338Z,166.10
2018-03-11T03:57:08.000Z,158.87
2018-03-11T03:59:35.773Z,155.67
2018-03-11T04:02:03.429Z,167.47
2018-03-11T04:04:31.052Z,161.13
2018-03-11T04:06:58.756Z,150.03
2018-03-11T04:09:26.376Z,258.73
2018-03-11T04:11:54.017Z,123.10
2018-03-11T04:14:21.637Z,107.43
2018-03-11T04:16:49.304Z,137.63
2018-03-11T04:19:16.926Z,134.37
2018-03-11T04:21:44.628Z,201.90
2018-03-11T04:24:12.254Z,115.17
2018-03-11T04:26:39.952Z,134.00
2018-03-11T04:29:07.565Z,389.63
2018-03-11T04:31:35.220Z,154.90
2018-03-11T04:34:02.836Z,184.27
2018-03-11T04:36:30.881Z,81.00
2018-03-11T04:38:58.541Z,89.50
2018-03-11T04:41:26.163Z,93.50
2018-03-11T04:43:53.905Z,115.43
2018-03-11T04:46:21.565Z,78.07
2018-03-11T04:48:49.199Z,133.43
2018-03-11T04:51:16.808Z,98.57
2018-03-11T04:53:44.553Z,116.13
2018-03-11T04:56:12.160Z,74.90
2018-03-11T04:58:39.794Z,64.87
2018-03-11T05:01:07.407Z,114.37
2018-03-11T05:03:35.045Z,96.00
2018-03-11T05:06:02.648Z,61.77
2018-03-11T05:08:30.529Z,84.27
2018-03-11T05:10:58.144Z,79.40
2018-03-11T05:13:25.744Z,55.80
2018-03-11T05:15:53.411Z,87.23
2018-03-11T05:18:21.028Z,120.80
2018-03-11T05:20:48.673Z,96.17
2018-03-11T05:23:16.280Z,139.43
2018-03-11T05:25:43.964Z,140.03
2018-03-11T05:28:11.580Z,229.90
2018-03-11T05:30:39.220Z,126.37
2018-03-11T05:33:06.839Z,204.67
2018-03-11T05:35:34.492Z,161.00
2018-03-11T05:38:02.118Z,121.73
2018-03-11T05:40:30.463Z,138.10
2018-03-11T05:42:58.109Z,188.30
2018-03-11T05:45:25.780Z,107.33
2018-03-11T05:47:53.449Z,121.63
2018-03-11T05:50:21.107Z,73.90
2018-03-11T05:52:48.740Z,88.70
2018-03-11T05:55:16.369Z,135.33
2018-03-11T05:57:44.012Z,115.00
2018-03-11T06:00:11.653Z,91.30
2018-03-11T06:02:39.422Z,220.33
2018-03-11T06:05:07.045Z,424.37
2018-03-11T06:07:34.653Z,95.63
2018-03-11T06:10:02.308Z,742.47
2018-03-11T06:12:29.964Z,254.17
2018-03-11T06:14:57.638Z,194.67
2018-03-11T06:17:25.293Z,80.87
2018-03-11T06:19:52.933Z,84.90
2018-03-11T06:22:20.554Z,103.87
2018-03-11T06:24:48.197Z,63.33
2018-03-11T06:27:15.804Z,75.63
2018-03-11T06:29:43.504Z,83.30
2018-03-11T06:32:11.115Z,67.57
2018-03-11T06:34:38.756Z,102.43
2018-03-11T06:37:06.369Z,92.30
2018-03-11T06:39:34.054Z,73.80
2018-03-11T06:42:01.692Z,79.43
2018-03-11T06:44:29.310Z,57.63
2018-03-11T06:46:57.043Z,61.87
2018-03-11T06:49:24.656Z,78.73
2018-03-11T06:51:52.360Z,70.73
2018-03-11T06:54:20.025Z,62.40
2018-03-11T06:56:47.657Z,62.80
2018-03-11T06:59:15.273Z,73.20
2018-03-11T07:01:43.017Z,81.53
2018-03-11T07:04:10.682Z,72.00
2018-03-11T07:06:38.328Z,56.83
2018-03-11T07:09:06.000Z,50.30
2018-03-11T07:11:33.662Z,55.73
2018-03-11T07:14:01.298Z,65.73
2018-03-11T07:16:28.920Z,74.50
2018-03-11T07:18:56.664Z,63.57
2018-03-11T07:21:24.318Z,63.80
2018-03-11T07:23:51.948Z,74.77
2018-03-11T07:26:19.565Z,67.33
2018-03-11T07:28:47.197Z,61.43
2018-03-11T07:31:14.869Z,57.53
2018-03-11T07:33:42.524Z,68.20
2018-03-11T07:36:10.129Z,76.50
2018-03-11T07:38:37.776Z,73.37
2018-03-11T07:41:05.380Z,63.37
2018-03-11T07:43:32.988Z,59.43
2018-03-11T07:46:00.636Z,64.33
2018-03-11T07:48:28.257Z,70.00
2018-03-11T07:50:55.888Z,69.00
2018-03-11T07:53:23.521Z,59.63
2018-03-11T07:55:51.157Z,73.97
2018-03-11T07:58:18.847Z,64.17
2018-03-11T08:00:46.480Z,65.97
2018-03-11T08:03:14.176Z,49.13
2018-03-11T08:05:41.829Z,47.57
2018-03-11T08:08:09.445Z,58.97
2018-03-11T08:10:37.165Z,55.83
2018-03-11T08:13:04.805Z,46.57
2018-03-11T08:15:32.488Z,43.67
2018-03-11T08:18:00.149Z,50.07
2018-03-11T08:20:27.817Z,49.20
2018-03-11T08:22:55.448Z,47.10
2018-03-11T08:25:23.056Z,43.10
2018-03-11T08:27:50.763Z,47.03
2018-03-11T08:30:18.372Z,49.33
2018-03-11T08:32:46.004Z,42.70
2018-03-11T08:35:13.617Z,42.90
2018-03-11T08:37:41.345Z,39.23
2018-03-11T08:40:08.960Z,43.43
2018-03-11T08:42:36.572Z,46.17
2018-03-11T08:45:04.209Z,43.40
2018-03-11T08:47:31.900Z,48.50
2018-03-11T08:49:59.658Z,47.50
2018-03-11T08:52:27.280Z,43.67
2018-03-11T08:54:54.920Z,37.80
2018-03-11T08:57:22.552Z,46.07
2018-03-11T08:59:50.217Z,40.23
2018-03-11T09:02:17.876Z,33.63
2018-03-11T09:04:45.521Z,38.23
2018-03-11T09:07:13.196Z,38.10
2018-03-11T09:09:40.868Z,37.90
2018-03-11T09:12:08.505Z,36.27
2018-03-11T09:14:36.187Z,37.60
2018-03-11T09:17:03.835Z,39.70
2018-03-11T09:19:31.460Z,39.10
2018-03-11T09:21:59.101Z,40.73
2018-03-11T09:24:26.741Z,38.37
2018-03-11T09:26:54.375Z,39.53
2018-03-11T09:29:21.992Z,36.37
2018-03-11T09:31:49.727Z,36.77
2018-03-11T09:34:17.401Z,37.20
2018-03-11T09:36:45.062Z,43.00
2018-03-11T09:39:12.812Z,32.43
2018-03-11T09:41:40.476Z,38.50
2018-03-11T09:44:08.144Z,39.30
2018-03-11T09:46:35.788Z,41.50
2018-03-11T09:49:03.465Z,36.70
2018-03-11T09:51:31.133Z,42.03
2018-03-11T09:53:58.763Z,35.03
2018-03-11T09:56:26.456Z,36.53
2018-03-11T09:58:54.093Z,34.37
2018-03-11T10:01:21.777Z,40.47
2018-03-11T10:03:49.418Z,39.20
2018-03-11T10:06:17.108Z,35.23
2018-03-11T10:08:44.751Z,30.43
2018-03-11T10:11:12.530Z,34.43
2018-03-11T10:13:40.173Z,31.80
2018-03-11T10:16:07.788Z,35.47
2018-03-11T10:18:35.425Z,37.23
2018-03-11T10:21:03.088Z,40.77
2018-03-11T10:23:30.805Z,34.83
2018-03-11T10:25:58.416Z,37.30
2018-03-11T10:28:26.081Z,43.43
2018-03-11T10:30:53.718Z,32.33
2018-03-11T10:33:21.335Z,30.70
2018-03-11T10:35:48.968Z,33.80
2018-03-11T10:38:16.628Z,30.80
2018-03-11T10:40:44.288Z,36.90
2018-03-11T10:43:11.952Z,36.53
2018-03-11T10:45:39.584Z,31.30
2018-03-11T10:48:07.200Z,29.93
2018-03-11T10:50:34.937Z,39.23
2018-03-11T10:53:02.596Z,30.63
2018-03-11T10:55:30.243Z,33.40
2018-03-11T10:57:57.856Z,30.50
2018-03-11T11:00:27.328Z,31.33
2018-03-11T11:03:00.476Z,32.30
2018-03-11T11:05:28.184Z,34.20
2018-03-11T11:07:55.805Z,35.70
2018-03-11T11:10:23.440Z,30.90
2018-03-11T11:12:51.048Z,29.93
2018-03-11T11:15:18.698Z,30.33
2018-03-11T11:17:46.397Z,31.67
2018-03-11T11:20:14.056Z,31.80
2018-03-11T11:22:41.668Z,28.80
2018-03-11T11:25:09.328Z,27.00
2018-03-11T11:27:37.040Z,23.30
2018-03-11T11:30:04.655Z,22.77
2018-03-11T11:32:32.375Z,21.43
2018-03-11T11:35:00.192Z,21.50
2018-03-11T11:37:27.863Z,23.37
2018-03-11T11:39:55.468Z,20.97
2018-03-11T11:42:23.123Z,19.47
2018-03-11T11:44:50.788Z,21.00
2018-03-11T11:47:18.452Z,19.97
2018-03-11T11:49:46.058Z,19.00
2018-03-11T11:52:14.268Z,21.57
2018-03-11T11:54:41.880Z,19.23
2018-03-11T11:57:10.253Z,17.10
2018-03-11T11:59:37.864Z,25.47
2018-03-11T12:02:05.657Z,18.33
2018-03-11T12:04:33.264Z,19.50
2018-03-11T12:07:00.935Z,15.30
2018-03-11T12:09:28.540Z,18.30
2018-03-11T12:11:56.147Z,17.17
2018-03-11T12:14:23.780Z,19.57
2018-03-11T12:16:51.420Z,23.33
2018-03-11T12:19:19.061Z,22.03
2018-03-11T12:21:46.750Z,23.20
2018-03-11T12:24:14.511Z,21.30
2018-03-11T12:26:42.185Z,18.77
2018-03-11T12:29:09.825Z,22.53
2018-03-11T12:31:37.445Z,16.00
2018-03-11T12:34:05.173Z,17.07
2018-03-11T12:36:32.826Z,17.10
2018-03-11T12:39:00.480Z,14.03
2018-03-11T12:41:28.094Z,14.33
2018-03-11T12:43:55.712Z,13.20
2018-03-11T12:46:23.379Z,13.87
2018-03-11T12:48:50.988Z,14.70
2018-03-11T12:51:18.624Z,17.30
2018-03-11T12:53:46.236Z,19.30
2018-03-11T12:56:13.876Z,15.23
2018-03-11T12:58:41.616Z,17.40
2018-03-11T13:01:09.249Z,15.90
2018-03-11T13:03:37.068Z,18.70
2018-03-11T13:06:04.784Z,19.80
2018-03-11T13:08:32.419Z,19.20
2018-03-11T13:11:00.122Z,16.53
2018-03-11T13:13:27.740Z,20.03
2018-03-11T13:15:55.437Z,19.37
2018-03-11T13:18:24.740Z,19.20
2018-03-11T13:21:04.285Z,16.67
2018-03-11T13:23:31.938Z,20.87
2018-03-11T13:25:59.548Z,18.30
2018-03-11T13:28:39.057Z,18.60
2018-03-11T13:31:06.708Z,21.93
2018-03-11T13:33:46.140Z,19.57
2018-03-11T13:36:13.808Z,20.00
2018-03-11T13:38:53.387Z,18.77
2018-03-11T13:41:21.006Z,22.13
2018-03-11T13:43:48.640Z,24.20
2018-03-11T13:46:28.112Z,26.83
2018-03-11T13:48:55.757Z,18.80
2018-03-11T13:51:35.209Z,21.67
2018-03-11T13:54:02.844Z,22.40
2018-03-11T13:56:30.448Z,19.77
2018-03-11T13:58:58.081Z,22.10
2018-03-11T14:01:25.693Z,22.50
2018-03-11T14:03:53.332Z,17.47
2018-03-11T14:06:20.988Z,19.50
2018-03-11T14:08:48.633Z,17.10
2018-03-11T14:11:16.260Z,16.90
2018-03-11T14:13:43.891Z,18.93
2018-03-11T14:16:11.503Z,15.13
2018-03-11T14:18:39.117Z,16.60
2018-03-11T14:21:06.860Z,16.33
2018-03-11T14:23:34.469Z,11.50
2018-03-11T14:26:02.104Z,11.60
2018-03-11T14:28:29.712Z,11.07
2018-03-11T14:30:57.350Z,13.10
2018-03-11T14:33:24.963Z,12.27
2018-03-11T14:35:52.603Z,14.90
2018-03-11T14:38:20.212Z,12.33
2018-03-11T14:40:47.842Z,15.67
2018-03-11T14:43:15.472Z,10.20
2018-03-11T14:45:43.185Z,12.80
2018-03-11T14:48:10.845Z,16.73
2018-03-11T14:50:38.497Z,12.10
2018-03-11T14:53:06.119Z,17.17
2018-03-11T14:55:33.728Z,19.43
2018-03-11T14:58:01.361Z,11.93
2018-03-11T15:00:29.052Z,18.40
2018-03-11T15:02:56.686Z,15.57
2018-03-11T15:05:24.301Z,13.83
2018-03-11T15:07:51.959Z,16.90
2018-03-11T15:10:19.572Z,15.00
2018-03-11T15:12:47.196Z,15.87
2018-03-11T15:15:14.936Z,25.13
2018-03-11T15:17:42.553Z,19.57
2018-03-11T15:20:10.185Z,50.07
2018-03-11T15:22:37.832Z,82.67
2018-03-11T15:25:05.457Z,202.70
2018-03-11T15:27:33.144Z,22.10
2018-03-11T15:30:00.812Z,30.97
2018-03-11T15:32:28.423Z,285.77
2018-03-11T15:34:56.129Z,82.70
2018-03-11T15:37:23.790Z,95.27
2018-03-11T15:39:51.425Z,61.83
2018-03-11T15:42:19.040Z,22.83
2018-03-11T15:44:46.672Z,25.03
2018-03-11T15:47:14.285Z,20.60
2018-03-11T15:49:41.895Z,14.57
2018-03-11T15:52:09.533Z,18.27
2018-03-11T15:54:37.225Z,14.17
2018-03-11T15:57:04.884Z,10.80
2018-03-11T15:59:32.498Z,20.13
2018-03-11T16:02:00.208Z,17.87
2018-03-11T16:04:27.876Z,12.47
2018-03-11T16:06:55.521Z,15.93
2018-03-11T16:09:23.204Z,30.63
2018-03-11T16:11:50.845Z,32.07
2018-03-11T16:14:18.529Z,42.77
2018-03-11T16:16:46.164Z,41.90
2018-03-11T16:19:13.848Z,44.00
2018-03-11T16:21:41.461Z,40.83
2018-03-11T16:24:09.092Z,43.37
2018-03-11T16:26:36.709Z,47.37
2018-03-11T16:29:04.401Z,48.67
2018-03-11T16:31:32.063Z,46.43
2018-03-11T16:33:59.697Z,45.93
2018-03-11T16:36:27.400Z,47.97
2018-03-11T16:38:55.033Z,39.90
2018-03-11T16:41:22.716Z,46.00
2018-03-11T16:43:50.383Z,48.43
2018-03-11T16:46:17.997Z,46.67
2018-03-11T16:48:45.604Z,56.80
2018-03-11T16:51:13.244Z,54.20
2018-03-11T16:53:40.876Z,54.27
2018-03-11T16:56:08.515Z,53.90
2018-03-11T16:58:36.154Z,48.03
2018-03-11T17:01:03.813Z,42.23
2018-03-11T17:03:31.434Z,43.77
2018-03-11T17:05:59.142Z,53.03
2018-03-11T17:08:26.753Z,47.27
2018-03-11T17:10:54.384Z,40.87
2018-03-11T17:13:22.027Z,42.43
2018-03-11T17:15:49.660Z,43.93
2018-03-11T17:18:17.352Z,42.50
2018-03-11T17:20:44.984Z,43.87
2018-03-11T17:23:12.596Z,41.50
2018-03-11T17:25:40.266Z,41.60
2018-03-11T17:28:07.892Z,45.80
2018-03-11T17:30:35.547Z,42.07
2018-03-11T17:33:03.214Z,41.93
2018-03-11T17:35:30.889Z,50.97
2018-03-11T17:37:58.641Z,42.90
2018-03-11T17:40:26.253Z,48.53
2018-03-11T17:42:53.901Z,44.43
2018-03-11T17:45:21.536Z,50.00
2018-03-11T17:47:49.164Z,44.47
2018-03-11T17:50:16.780Z,46.63
2018-03-11T17:52:44.529Z,59.00
2018-03-11T17:55:12.141Z,49.90
2018-03-11T17:57:39.845Z,51.90
2018-03-11T18:00:07.456Z,51.07
2018-03-11T18:02:35.177Z,54.47
2018-03-11T18:05:02.841Z,44.83
2018-03-11T18:07:30.500Z,50.93
2018-03-11T18:09:58.118Z,47.10
2018-03-11T18:12:25.824Z,43.07
2018-03-11T18:14:53.436Z,49.80
2018-03-11T18:17:21.153Z,45.07
2018-03-11T18:19:48.911Z,48.70
2018-03-11T18:22:16.574Z,51.80
2018-03-11T18:24:44.196Z,55.60
2018-03-11T18:27:11.869Z,62.27
2018-03-11T18:29:39.569Z,62.57
2018-03-11T18:32:07.266Z,66.00
2018-03-11T18:34:34.895Z,65.53
2018-03-11T18:37:02.552Z,63.27
2018-03-11T18:39:30.188Z,76.63
2018-03-11T18:41:57.796Z,68.83
2018-03-11T18:44:25.429Z,58.60
2018-03-11T18:46:53.104Z,57.73
2018-03-11T18:49:20.769Z,55.63
2018-03-11T18:51:48.432Z,55.60
2018-03-11T18:54:16.073Z,54.40
2018-03-11T18:56:43.687Z,52.67
2018-03-11T18:59:11.897Z,51.40
2018-03-11T19:01:39.521Z,53.00
2018-03-11T19:04:07.257Z,55.43
2018-03-11T19:06:34.872Z,52.63
2018-03-11T19:09:02.507Z,56.17
2018-03-11T19:11:30.151Z,58.30
2018-03-11T19:13:57.804Z,47.80
2018-03-11T19:16:25.464Z,52.47
2018-03-11T19:18:53.125Z,48.93
2018-03-11T19:21:20.796Z,52.40
2018-03-11T19:23:48.453Z,51.40
2018-03-11T19:26:16.081Z,51.40
2018-03-11T19:28:43.776Z,55.27
2018-03-11T19:31:11.412Z,55.47
2018-03-11T19:33:39.105Z,54.47
2018-03-11T19:36:06.768Z,52.93
2018-03-11T19:38:34.434Z,50.13
2018-03-11T19:41:02.084Z,50.10
2018-03-11T19:43:29.756Z,48.43
2018-03-11T19:45:57.412Z,52.93
2018-03-11T19:48:25.045Z,51.07
2018-03-11T19:50:52.745Z,55.87
2018-03-11T19:53:20.502Z,45.07
2018-03-11T19:55:48.168Z,57.10
2018-03-11T19:58:15.837Z,54.63
2018-03-11T20:00:43.477Z,53.30
2018-03-11T20:03:11.109Z,50.30
2018-03-11T20:05:38.722Z,57.37
2018-03-11T20:08:06.384Z,54.93
2018-03-11T20:10:33.988Z,51.80
2018-03-11T20:13:01.625Z,49.70
2018-03-11T20:15:29.257Z,52.50
2018-03-11T20:17:56.924Z,48.17
2018-03-11T20:20:24.592Z,51.80
2018-03-11T20:22:52.205Z,47.80
2018-03-11T20:25:19.829Z,52.50
2018-03-11T20:27:47.432Z,49.83
2018-03-11T20:30:15.065Z,46.60
2018-03-11T20:32:42.674Z,43.10
2018-03-11T20:35:10.303Z,46.10
2018-03-11T20:37:38.023Z,46.10
2018-03-11T20:40:05.673Z,49.80
2018-03-11T20:42:33.282Z,47.20
2018-03-11T20:45:01.009Z,48.43
2018-03-11T20:47:28.642Z,48.93
2018-03-11T20:49:56.346Z,54.40
2018-03-11T20:52:23.974Z,45.10
2018-03-11T20:54:51.645Z,44.87
2018-03-11T20:57:19.249Z,50.03
2018-03-11T20:59:46.892Z,44.97
2018-03-11T21:02:14.560Z,44.63
2018-03-11T21:04:42.215Z,44.30
2018-03-11T21:07:09.919Z,43.40
2018-03-11T21:09:37.509Z,42.40
2018-03-11T21:12:05.141Z,43.67
2018-03-11T21:14:32.864Z,46.20
2018-03-11T21:17:00.512Z,54.00
2018-03-11T21:19:28.193Z,58.83
2018-03-11T21:21:55.809Z,56.10
2018-03-11T21:24:23.448Z,56.10
2018-03-11T21:26:51.077Z,51.00
2018-03-11T21:29:18.704Z,48.67
2018-03-11T21:31:46.318Z,45.60
2018-03-11T21:34:14.589Z,41.37
2018-03-11T21:36:42.201Z,45.53
2018-03-11T21:39:09.833Z,37.00
2018-03-11T21:41:37.464Z,41.13
2018-03-11T21:44:05.121Z,39.27
2018-03-11T21:46:32.785Z,29.43
2018-03-11T21:49:00.452Z,35.63
2018-03-11T21:51:28.065Z,39.20
2018-03-11T21:53:55.771Z,31.97
2018-03-11T21:56:23.396Z,34.00
2018-03-11T21:58:51.100Z,40.97
2018-03-11T22:01:18.757Z,33.97
2018-03-11T22:03:46.424Z,30.07
2018-03-11T22:06:14.052Z,35.13
2018-03-11T22:08:41.748Z,34.57
2018-03-11T22:11:09.380Z,29.97
2018-03-11T22:13:36.989Z,37.60
2018-03-11T22:16:04.625Z,37.37
2018-03-11T22:18:32.238Z,35.17
2018-03-11T22:20:59.964Z,35.47
2018-03-11T22:23:27.633Z,41.87
2018-03-11T22:25:55.285Z,37.20
2018-03-11T22:28:22.891Z,35.33
2018-03-11T22:30:50.617Z,38.17
2018-03-11T22:33:18.248Z,37.13
2018-03-11T22:35:45.938Z,32.57
2018-03-11T22:38:13.600Z,30.13
2018-03-11T22:40:41.273Z,34.93
2018-03-11T22:43:08.900Z,35.97
2018-03-11T22:45:36.511Z,31.07
2018-03-11T22:48:04.145Z,32.47
2018-03-11T22:50:31.752Z,34.10
2018-03-11T22:52:59.472Z,35.60
2018-03-11T22:55:27.145Z,33.67
2018-03-11T22:57:54.800Z,35.93
2018-03-11T23:00:22.416Z,39.47
2018-03-11T23:02:50.044Z,35.97
2018-03-11T23:05:17.693Z,35.83
2018-03-11T23:07:45.456Z,35.23
2018-03-11T23:10:13.073Z,33.77
2018-03-11T23:12:40.776Z,36.73
2018-03-11T23:15:08.405Z,37.27
2018-03-11T23:17:36.017Z,39.33
2018-03-11T23:20:03.660Z,33.33
2018-03-11T23:22:31.274Z,38.60
2018-03-11T23:24:58.914Z,34.00
2018-03-11T23:27:26.520Z,34.83
2018-03-11T23:29:54.152Z,36.17
2018-03-11T23:32:21.765Z,37.80
2018-03-11T23:34:49.397Z,40.53
2018-03-11T23:37:17.010Z,38.60
2018-03-11T23:39:44.656Z,31.50
2018-03-11T23:42:12.330Z,31.33
2018-03-11T23:44:39.945Z,42.73
2018-03-11T23:47:07.580Z,38.93
2018-03-11T23:49:35.189Z,39.40
2018-03-11T23:52:02.826Z,36.90
2018-03-11T23:54:30.432Z,37.33
2018-03-11T23:56:58.065Z,33.37
2018-03-11T23:59:25.676Z,36.23
